sensor_id;sensor_type;location;lat;lon;timestamp;pressure;altitude;pressure_sealevel;temperature;humidity
70930;BME280;58588;48.102;19.682;2022-08-19T00:02:49;99007.53;;;22.48;83.30
70930;BME280;58588;48.102;19.682;2022-08-19T00:05:52;99008.91;;;22.51;83.60
70930;BME280;58588;48.102;19.682;2022-08-19T00:08:55;99008.66;;;22.32;84.32
70930;BME280;58588;48.102;19.682;2022-08-19T00:11:59;99014.41;;;22.30;83.90
70930;BME280;58588;48.102;19.682;2022-08-19T00:15:01;99009.16;;;22.18;83.86
70930;BME280;58588;48.102;19.682;2022-08-19T00:18:03;98999.00;;;22.09;84.59
70930;BME280;58588;48.102;19.682;2022-08-19T00:21:06;99000.06;;;21.92;86.07
70930;BME280;58588;48.102;19.682;2022-08-19T00:24:11;98991.50;;;21.69;87.78
70930;BME280;58588;48.102;19.682;2022-08-19T00:27:14;98989.31;;;21.60;88.92
70930;BME280;58588;48.102;19.682;2022-08-19T00:30:16;98980.78;;;21.62;88.56
70930;BME280;58588;48.102;19.682;2022-08-19T00:33:19;98969.22;;;21.40;90.15
70930;BME280;58588;48.102;19.682;2022-08-19T00:36:23;98967.59;;;21.49;89.95
70930;BME280;58588;48.102;19.682;2022-08-19T00:39:25;98966.25;;;21.56;89.29
70930;BME280;58588;48.102;19.682;2022-08-19T00:42:27;98966.50;;;21.50;90.55
70930;BME280;58588;48.102;19.682;2022-08-19T00:45:30;98968.63;;;21.32;90.79
70930;BME280;58588;48.102;19.682;2022-08-19T00:48:34;98968.91;;;21.31;91.53
70930;BME280;58588;48.102;19.682;2022-08-19T00:51:38;98972.41;;;21.21;92.87
70930;BME280;58588;48.102;19.682;2022-08-19T00:54:42;98971.31;;;21.22;92.63
70930;BME280;58588;48.102;19.682;2022-08-19T00:57:48;98990.44;;;21.07;93.62
70930;BME280;58588;48.102;19.682;2022-08-19T01:00:51;98982.75;;;21.04;93.39
70930;BME280;58588;48.102;19.682;2022-08-19T01:03:54;98991.47;;;20.96;93.93
70930;BME280;58588;48.102;19.682;2022-08-19T01:06:57;98984.91;;;20.97;93.25
70930;BME280;58588;48.102;19.682;2022-08-19T01:10:01;98985.44;;;20.99;93.42
70930;BME280;58588;48.102;19.682;2022-08-19T01:13:04;98995.28;;;20.90;94.16
70930;BME280;58588;48.102;19.682;2022-08-19T01:16:09;98994.25;;;21.01;93.66
70930;BME280;58588;48.102;19.682;2022-08-19T01:19:17;98996.97;;;20.96;94.52
70930;BME280;58588;48.102;19.682;2022-08-19T01:22:30;98992.31;;;20.96;92.66
70930;BME280;58588;48.102;19.682;2022-08-19T01:25:38;98987.88;;;20.90;94.52
70930;BME280;58588;48.102;19.682;2022-08-19T01:28:43;98982.88;;;20.77;93.76
70930;BME280;58588;48.102;19.682;2022-08-19T01:31:45;98983.84;;;20.55;95.88
70930;BME280;58588;48.102;19.682;2022-08-19T01:34:47;98979.31;;;20.39;97.56
70930;BME280;58588;48.102;19.682;2022-08-19T01:37:52;98971.38;;;20.43;97.38
70930;BME280;58588;48.102;19.682;2022-08-19T01:40:54;98975.97;;;20.32;97.45
70930;BME280;58588;48.102;19.682;2022-08-19T01:43:57;98970.63;;;20.47;97.07
70930;BME280;58588;48.102;19.682;2022-08-19T01:46:59;98969.84;;;20.52;96.17
70930;BME280;58588;48.102;19.682;2022-08-19T01:50:00;98968.91;;;20.41;96.39
70930;BME280;58588;48.102;19.682;2022-08-19T01:53:06;98979.28;;;20.34;97.17
70930;BME280;58588;48.102;19.682;2022-08-19T01:56:09;98980.88;;;20.30;98.13
70930;BME280;58588;48.102;19.682;2022-08-19T01:59:14;98976.31;;;20.09;99.10
70930;BME280;58588;48.102;19.682;2022-08-19T02:02:17;98980.47;;;19.84;99.94
70930;BME280;58588;48.102;19.682;2022-08-19T02:05:19;98974.56;;;19.92;99.79
70930;BME280;58588;48.102;19.682;2022-08-19T02:08:23;98979.44;;;19.90;99.08
70930;BME280;58588;48.102;19.682;2022-08-19T02:11:29;98978.41;;;19.96;98.65
70930;BME280;58588;48.102;19.682;2022-08-19T02:14:33;98977.84;;;19.94;99.66
70930;BME280;58588;48.102;19.682;2022-08-19T02:17:35;98986.09;;;19.99;99.20
70930;BME280;58588;48.102;19.682;2022-08-19T02:20:38;98973.56;;;20.03;98.57
70930;BME280;58588;48.102;19.682;2022-08-19T02:23:41;98966.47;;;20.08;98.12
70930;BME280;58588;48.102;19.682;2022-08-19T02:26:43;98969.63;;;19.94;98.96
70930;BME280;58588;48.102;19.682;2022-08-19T02:29:46;98972.31;;;19.89;99.48
70930;BME280;58588;48.102;19.682;2022-08-19T02:32:48;98967.59;;;19.80;100.00
70930;BME280;58588;48.102;19.682;2022-08-19T02:35:50;98957.44;;;19.53;100.00
70930;BME280;58588;48.102;19.682;2022-08-19T02:38:54;98959.22;;;19.64;100.00
70930;BME280;58588;48.102;19.682;2022-08-19T02:41:56;98967.22;;;19.71;100.00
70930;BME280;58588;48.102;19.682;2022-08-19T02:45:00;98969.94;;;19.71;99.99
70930;BME280;58588;48.102;19.682;2022-08-19T02:48:02;98966.41;;;19.70;100.00
70930;BME280;58588;48.102;19.682;2022-08-19T02:51:08;98963.31;;;19.62;100.00
70930;BME280;58588;48.102;19.682;2022-08-19T02:54:12;98968.63;;;19.73;100.00
70930;BME280;58588;48.102;19.682;2022-08-19T02:57:14;98964.00;;;19.79;100.00
70930;BME280;58588;48.102;19.682;2022-08-19T03:00:16;98974.91;;;19.74;100.00
70930;BME280;58588;48.102;19.682;2022-08-19T03:03:19;98967.97;;;19.66;100.00
70930;BME280;58588;48.102;19.682;2022-08-19T03:06:22;98969.66;;;19.67;100.00
70930;BME280;58588;48.102;19.682;2022-08-19T03:09:25;98966.88;;;19.62;100.00
70930;BME280;58588;48.102;19.682;2022-08-19T03:12:27;98981.16;;;19.47;100.00
70930;BME280;58588;48.102;19.682;2022-08-19T03:15:29;98984.63;;;19.38;100.00
70930;BME280;58588;48.102;19.682;2022-08-19T03:18:31;98979.34;;;19.31;100.00
70930;BME280;58588;48.102;19.682;2022-08-19T03:21:34;98983.78;;;19.15;100.00
70930;BME280;58588;48.102;19.682;2022-08-19T03:24:38;98999.94;;;19.17;100.00
70930;BME280;58588;48.102;19.682;2022-08-19T03:27:40;99013.41;;;19.23;100.00
70930;BME280;58588;48.102;19.682;2022-08-19T03:30:55;99023.00;;;19.04;100.00
70930;BME280;58588;48.102;19.682;2022-08-19T03:33:57;99021.28;;;18.98;100.00
70930;BME280;58588;48.102;19.682;2022-08-19T03:37:03;99025.56;;;18.94;100.00
70930;BME280;58588;48.102;19.682;2022-08-19T03:40:08;99020.81;;;18.84;100.00
70930;BME280;58588;48.102;19.682;2022-08-19T03:43:10;99012.81;;;18.99;100.00
70930;BME280;58588;48.102;19.682;2022-08-19T03:46:14;99014.25;;;18.85;100.00
70930;BME280;58588;48.102;19.682;2022-08-19T03:49:18;99016.81;;;18.92;100.00
70930;BME280;58588;48.102;19.682;2022-08-19T03:52:20;99012.63;;;18.84;100.00
70930;BME280;58588;48.102;19.682;2022-08-19T03:55:24;99023.53;;;18.84;100.00
70930;BME280;58588;48.102;19.682;2022-08-19T03:58:26;99033.75;;;18.72;100.00
70930;BME280;58588;48.102;19.682;2022-08-19T04:01:29;99042.88;;;18.83;100.00
70930;BME280;58588;48.102;19.682;2022-08-19T04:04:31;99051.50;;;18.91;100.00
70930;BME280;58588;48.102;19.682;2022-08-19T04:07:33;99054.31;;;18.96;100.00
70930;BME280;58588;48.102;19.682;2022-08-19T04:10:38;99048.78;;;18.91;100.00
70930;BME280;58588;48.102;19.682;2022-08-19T04:13:41;99047.31;;;19.06;100.00
70930;BME280;58588;48.102;19.682;2022-08-19T04:16:44;99055.78;;;19.04;100.00
70930;BME280;58588;48.102;19.682;2022-08-19T04:19:46;99059.78;;;19.18;100.00
70930;BME280;58588;48.102;19.682;2022-08-19T04:22:48;99062.41;;;19.08;100.00
70930;BME280;58588;48.102;19.682;2022-08-19T04:25:51;99071.94;;;18.89;100.00
70930;BME280;58588;48.102;19.682;2022-08-19T04:28:54;99064.22;;;19.03;100.00
70930;BME280;58588;48.102;19.682;2022-08-19T04:31:57;99047.47;;;19.16;100.00
70930;BME280;58588;48.102;19.682;2022-08-19T04:34:59;99035.06;;;19.30;100.00
70930;BME280;58588;48.102;19.682;2022-08-19T04:38:01;99038.13;;;19.34;100.00
70930;BME280;58588;48.102;19.682;2022-08-19T04:41:05;99031.81;;;19.55;100.00
70930;BME280;58588;48.102;19.682;2022-08-19T04:44:24;99021.28;;;19.42;100.00
70930;BME280;58588;48.102;19.682;2022-08-19T04:47:27;99022.88;;;19.60;100.00
70930;BME280;58588;48.102;19.682;2022-08-19T04:50:31;99033.94;;;19.70;100.00
70930;BME280;58588;48.102;19.682;2022-08-19T04:53:34;99041.44;;;19.80;100.00
70930;BME280;58588;48.102;19.682;2022-08-19T04:56:38;99048.16;;;19.94;100.00
70930;BME280;58588;48.102;19.682;2022-08-19T04:59:40;99055.50;;;20.15;99.54
70930;BME280;58588;48.102;19.682;2022-08-19T05:02:43;99059.19;;;20.31;99.49
70930;BME280;58588;48.102;19.682;2022-08-19T05:05:46;99052.97;;;20.41;99.21
70930;BME280;58588;48.102;19.682;2022-08-19T05:08:49;99046.22;;;20.48;99.33
70930;BME280;58588;48.102;19.682;2022-08-19T05:11:53;99045.81;;;20.67;99.92
70930;BME280;58588;48.102;19.682;2022-08-19T05:14:55;99051.72;;;20.91;98.59
70930;BME280;58588;48.102;19.682;2022-08-19T05:17:57;99045.81;;;21.09;96.83
70930;BME280;58588;48.102;19.682;2022-08-19T05:21:18;99038.75;;;21.18;98.51
70930;BME280;58588;48.102;19.682;2022-08-19T05:24:37;99045.34;;;21.27;99.50
70930;BME280;58588;48.102;19.682;2022-08-19T05:27:41;99029.84;;;21.43;95.67
70930;BME280;58588;48.102;19.682;2022-08-19T05:30:44;99025.28;;;21.74;94.34
70930;BME280;58588;48.102;19.682;2022-08-19T05:33:46;99023.66;;;21.88;92.68
70930;BME280;58588;48.102;19.682;2022-08-19T05:36:49;99038.00;;;22.11;93.96
70930;BME280;58588;48.102;19.682;2022-08-19T05:39:54;99024.31;;;22.31;92.57
70930;BME280;58588;48.102;19.682;2022-08-19T05:42:57;99025.94;;;22.53;93.43
70930;BME280;58588;48.102;19.682;2022-08-19T05:45:59;99019.84;;;22.86;91.33
70930;BME280;58588;48.102;19.682;2022-08-19T05:49:01;99026.44;;;23.11;89.73
70930;BME280;58588;48.102;19.682;2022-08-19T05:52:06;99035.38;;;23.42;88.24
70930;BME280;58588;48.102;19.682;2022-08-19T05:55:08;99033.13;;;23.54;86.10
70930;BME280;58588;48.102;19.682;2022-08-19T05:58:12;99042.38;;;23.84;85.17
70930;BME280;58588;48.102;19.682;2022-08-19T06:01:16;99042.06;;;23.90;81.31
70930;BME280;58588;48.102;19.682;2022-08-19T06:04:19;99045.44;;;24.21;79.01
70930;BME280;58588;48.102;19.682;2022-08-19T06:07:22;99051.03;;;24.50;79.17
70930;BME280;58588;48.102;19.682;2022-08-19T06:10:24;99054.72;;;24.70;78.61
70930;BME280;58588;48.102;19.682;2022-08-19T06:13:28;99043.59;;;24.80;75.43
70930;BME280;58588;48.102;19.682;2022-08-19T06:16:30;99047.53;;;25.03;73.48
70930;BME280;58588;48.102;19.682;2022-08-19T06:19:35;99047.97;;;25.39;72.84
70930;BME280;58588;48.102;19.682;2022-08-19T06:22:39;99051.72;;;25.48;73.04
70930;BME280;58588;48.102;19.682;2022-08-19T06:25:41;99058.31;;;25.71;72.08
70930;BME280;58588;48.102;19.682;2022-08-19T06:28:44;99053.16;;;25.88;71.94
70930;BME280;58588;48.102;19.682;2022-08-19T06:31:51;99060.31;;;25.89;71.76
70930;BME280;58588;48.102;19.682;2022-08-19T06:34:53;99052.78;;;26.14;71.89
70930;BME280;58588;48.102;19.682;2022-08-19T06:37:55;99056.28;;;26.20;72.57
70930;BME280;58588;48.102;19.682;2022-08-19T06:41:00;99054.38;;;26.39;71.03
70930;BME280;58588;48.102;19.682;2022-08-19T06:44:04;99051.41;;;26.68;69.24
70930;BME280;58588;48.102;19.682;2022-08-19T06:47:08;99055.31;;;26.81;68.72
70930;BME280;58588;48.102;19.682;2022-08-19T06:50:10;99051.69;;;26.99;69.79
70930;BME280;58588;48.102;19.682;2022-08-19T06:53:13;99048.44;;;27.11;68.43
70930;BME280;58588;48.102;19.682;2022-08-19T06:56:17;99048.47;;;27.25;67.10
70930;BME280;58588;48.102;19.682;2022-08-19T06:59:23;99049.38;;;27.34;65.06
70930;BME280;58588;48.102;19.682;2022-08-19T07:02:27;99044.75;;;27.57;65.07
70930;BME280;58588;48.102;19.682;2022-08-19T07:05:29;99041.78;;;27.67;66.18
70930;BME280;58588;48.102;19.682;2022-08-19T07:08:32;99046.72;;;27.84;66.69
70930;BME280;58588;48.102;19.682;2022-08-19T07:11:34;99048.47;;;27.80;61.69
70930;BME280;58588;48.102;19.682;2022-08-19T07:14:40;99044.94;;;27.88;63.73
70930;BME280;58588;48.102;19.682;2022-08-19T07:17:42;99046.84;;;28.15;62.98
70930;BME280;58588;48.102;19.682;2022-08-19T07:20:44;99055.34;;;28.18;61.54
70930;BME280;58588;48.102;19.682;2022-08-19T07:23:46;99044.19;;;28.68;58.13
70930;BME280;58588;48.102;19.682;2022-08-19T07:26:48;99053.31;;;28.91;61.07
70930;BME280;58588;48.102;19.682;2022-08-19T07:29:53;99056.81;;;28.97;57.73
70930;BME280;58588;48.102;19.682;2022-08-19T07:32:55;99053.72;;;29.07;57.10
70930;BME280;58588;48.102;19.682;2022-08-19T07:35:57;99043.25;;;28.73;55.67
70930;BME280;58588;48.102;19.682;2022-08-19T07:39:02;99056.59;;;28.93;56.78
70930;BME280;58588;48.102;19.682;2022-08-19T07:42:07;99055.44;;;29.25;55.91
70930;BME280;58588;48.102;19.682;2022-08-19T07:45:11;99051.97;;;29.51;56.61
70930;BME280;58588;48.102;19.682;2022-08-19T07:48:14;99044.16;;;29.62;55.76
70930;BME280;58588;48.102;19.682;2022-08-19T07:51:19;99040.31;;;29.89;57.64
70930;BME280;58588;48.102;19.682;2022-08-19T07:54:24;99045.44;;;30.13;57.96
70930;BME280;58588;48.102;19.682;2022-08-19T07:57:26;99040.03;;;30.25;55.71
70930;BME280;58588;48.102;19.682;2022-08-19T08:00:29;99030.03;;;30.50;53.60
70930;BME280;58588;48.102;19.682;2022-08-19T08:03:33;99028.56;;;30.61;51.18
70930;BME280;58588;48.102;19.682;2022-08-19T08:06:51;99035.19;;;31.03;50.66
70930;BME280;58588;48.102;19.682;2022-08-19T08:10:10;99032.09;;;30.96;50.07
70930;BME280;58588;48.102;19.682;2022-08-19T08:13:12;99037.75;;;31.26;50.93
70930;BME280;58588;48.102;19.682;2022-08-19T08:16:15;99027.09;;;31.28;46.62
70930;BME280;58588;48.102;19.682;2022-08-19T08:19:18;99027.75;;;31.25;50.53
70930;BME280;58588;48.102;19.682;2022-08-19T08:22:22;99018.41;;;31.59;48.12
70930;BME280;58588;48.102;19.682;2022-08-19T08:25:42;99013.28;;;31.90;46.27
70930;BME280;58588;48.102;19.682;2022-08-19T08:28:44;99011.00;;;32.13;45.95
70930;BME280;58588;48.102;19.682;2022-08-19T08:31:49;99010.59;;;32.23;45.71
70930;BME280;58588;48.102;19.682;2022-08-19T08:34:52;99021.47;;;32.37;46.96
70930;BME280;58588;48.102;19.682;2022-08-19T08:37:55;99009.47;;;32.58;42.54
70930;BME280;58588;48.102;19.682;2022-08-19T08:41:02;99005.44;;;32.80;42.58
70930;BME280;58588;48.102;19.682;2022-08-19T08:44:13;99006.38;;;33.29;39.10
70930;BME280;58588;48.102;19.682;2022-08-19T08:47:20;99003.00;;;33.36;40.01
70930;BME280;58588;48.102;19.682;2022-08-19T08:50:28;99009.66;;;33.43;41.10
70930;BME280;58588;48.102;19.682;2022-08-19T08:53:31;99006.50;;;33.45;40.55
70930;BME280;58588;48.102;19.682;2022-08-19T08:56:34;98996.59;;;33.35;38.24
70930;BME280;58588;48.102;19.682;2022-08-19T08:59:39;99001.47;;;33.75;37.14
70930;BME280;58588;48.102;19.682;2022-08-19T09:02:43;99014.06;;;33.93;37.18
70930;BME280;58588;48.102;19.682;2022-08-19T09:05:55;99005.81;;;34.13;35.68
70930;BME280;58588;48.102;19.682;2022-08-19T09:09:03;99002.84;;;33.93;37.03
70930;BME280;58588;48.102;19.682;2022-08-19T09:12:10;99012.28;;;34.13;36.74
70930;BME280;58588;48.102;19.682;2022-08-19T09:15:14;99016.00;;;34.45;36.44
70930;BME280;58588;48.102;19.682;2022-08-19T09:18:20;99018.56;;;34.50;35.74
70930;BME280;58588;48.102;19.682;2022-08-19T09:21:23;99025.94;;;34.43;36.23
70930;BME280;58588;48.102;19.682;2022-08-19T09:24:25;99011.66;;;34.76;35.03
70930;BME280;58588;48.102;19.682;2022-08-19T09:27:27;99013.25;;;35.21;35.47
70930;BME280;58588;48.102;19.682;2022-08-19T09:30:32;99007.38;;;35.10;36.11
70930;BME280;58588;48.102;19.682;2022-08-19T09:33:36;99009.53;;;35.01;35.10
70930;BME280;58588;48.102;19.682;2022-08-19T09:36:38;99005.56;;;35.33;33.52
70930;BME280;58588;48.102;19.682;2022-08-19T09:39:40;99009.47;;;35.45;33.85
70930;BME280;58588;48.102;19.682;2022-08-19T09:42:43;99008.72;;;35.00;35.26
70930;BME280;58588;48.102;19.682;2022-08-19T09:45:46;99015.06;;;34.97;35.48
70930;BME280;58588;48.102;19.682;2022-08-19T09:48:50;99011.81;;;35.27;36.36
70930;BME280;58588;48.102;19.682;2022-08-19T09:51:53;99003.13;;;35.63;34.23
70930;BME280;58588;48.102;19.682;2022-08-19T09:54:56;98997.69;;;35.55;32.28
70930;BME280;58588;48.102;19.682;2022-08-19T09:58:00;98988.97;;;35.76;34.41
70930;BME280;58588;48.102;19.682;2022-08-19T10:01:02;98975.81;;;35.96;31.78
70930;BME280;58588;48.102;19.682;2022-08-19T10:04:06;98970.13;;;36.50;33.91
70930;BME280;58588;48.102;19.682;2022-08-19T10:07:09;98953.56;;;36.45;34.38
70930;BME280;58588;48.102;19.682;2022-08-19T10:10:12;98946.41;;;36.48;30.94
70930;BME280;58588;48.102;19.682;2022-08-19T10:13:17;98942.47;;;36.75;29.55
70930;BME280;58588;48.102;19.682;2022-08-19T10:16:21;98947.22;;;36.09;33.49
70930;BME280;58588;48.102;19.682;2022-08-19T10:19:24;98947.78;;;36.80;32.36
70930;BME280;58588;48.102;19.682;2022-08-19T10:22:26;98951.38;;;37.00;31.85
70930;BME280;58588;48.102;19.682;2022-08-19T10:25:28;98962.69;;;37.53;30.25
70930;BME280;58588;48.102;19.682;2022-08-19T10:28:30;98962.06;;;37.14;34.40
70930;BME280;58588;48.102;19.682;2022-08-19T10:31:33;98972.00;;;37.57;31.97
70930;BME280;58588;48.102;19.682;2022-08-19T10:34:37;98954.72;;;37.32;31.75
70930;BME280;58588;48.102;19.682;2022-08-19T10:37:39;98959.22;;;37.63;31.51
70930;BME280;58588;48.102;19.682;2022-08-19T10:40:41;98964.59;;;37.45;30.12
70930;BME280;58588;48.102;19.682;2022-08-19T10:43:43;98962.94;;;37.71;31.79
70930;BME280;58588;48.102;19.682;2022-08-19T10:46:45;98961.34;;;37.43;29.54
70930;BME280;58588;48.102;19.682;2022-08-19T10:49:50;98962.00;;;38.20;30.27
70930;BME280;58588;48.102;19.682;2022-08-19T10:53:09;98966.53;;;38.62;30.24
70930;BME280;58588;48.102;19.682;2022-08-19T10:56:11;98953.22;;;38.59;28.59
70930;BME280;58588;48.102;19.682;2022-08-19T10:59:31;98943.44;;;38.86;26.69
70930;BME280;58588;48.102;19.682;2022-08-19T11:02:33;98940.63;;;38.86;28.19
70930;BME280;58588;48.102;19.682;2022-08-19T11:05:36;98937.34;;;38.43;29.50
70930;BME280;58588;48.102;19.682;2022-08-19T11:08:39;98935.16;;;38.63;29.43
70930;BME280;58588;48.102;19.682;2022-08-19T11:11:41;98926.59;;;38.52;31.01
70930;BME280;58588;48.102;19.682;2022-08-19T11:14:43;98926.47;;;38.08;31.35
70930;BME280;58588;48.102;19.682;2022-08-19T11:17:45;98925.84;;;38.22;29.04
70930;BME280;58588;48.102;19.682;2022-08-19T11:20:48;98922.38;;;38.36;29.32
70930;BME280;58588;48.102;19.682;2022-08-19T11:23:53;98913.31;;;38.97;29.93
70930;BME280;58588;48.102;19.682;2022-08-19T11:27:04;98902.88;;;39.01;28.05
70930;BME280;58588;48.102;19.682;2022-08-19T11:30:07;98905.97;;;38.82;29.78
70930;BME280;58588;48.102;19.682;2022-08-19T11:33:10;98899.28;;;38.60;28.43
70930;BME280;58588;48.102;19.682;2022-08-19T11:36:13;98898.41;;;38.97;28.72
70930;BME280;58588;48.102;19.682;2022-08-19T11:39:17;98896.69;;;39.33;26.10
70930;BME280;58588;48.102;19.682;2022-08-19T11:42:20;98893.94;;;39.44;27.10
70930;BME280;58588;48.102;19.682;2022-08-19T11:45:39;98889.56;;;38.54;24.93
70930;BME280;58588;48.102;19.682;2022-08-19T11:48:42;98890.94;;;38.30;26.13
70930;BME280;58588;48.102;19.682;2022-08-19T11:51:46;98881.78;;;39.29;25.56
70930;BME280;58588;48.102;19.682;2022-08-19T11:54:50;98888.69;;;40.19;26.53
70930;BME280;58588;48.102;19.682;2022-08-19T11:57:52;98885.75;;;39.97;27.28
70930;BME280;58588;48.102;19.682;2022-08-19T12:00:54;98879.75;;;39.29;28.17
70930;BME280;58588;48.102;19.682;2022-08-19T12:03:56;98876.41;;;39.82;27.39
70930;BME280;58588;48.102;19.682;2022-08-19T12:07:00;98876.66;;;39.56;25.97
70930;BME280;58588;48.102;19.682;2022-08-19T12:10:02;98872.19;;;39.48;27.24
70930;BME280;58588;48.102;19.682;2022-08-19T12:13:04;98871.28;;;39.29;24.24
70930;BME280;58588;48.102;19.682;2022-08-19T12:16:08;98884.50;;;39.18;26.50
70930;BME280;58588;48.102;19.682;2022-08-19T12:19:11;98881.47;;;39.52;29.24
70930;BME280;58588;48.102;19.682;2022-08-19T12:22:14;98882.03;;;39.82;25.54
70930;BME280;58588;48.102;19.682;2022-08-19T12:25:17;98877.69;;;39.96;25.55
70930;BME280;58588;48.102;19.682;2022-08-19T12:28:20;98877.69;;;39.99;26.32
70930;BME280;58588;48.102;19.682;2022-08-19T12:31:22;98874.81;;;39.85;25.24
70930;BME280;58588;48.102;19.682;2022-08-19T12:34:24;98865.25;;;40.22;25.48
70930;BME280;58588;48.102;19.682;2022-08-19T12:37:28;98879.19;;;39.75;26.97
70930;BME280;58588;48.102;19.682;2022-08-19T12:40:32;98872.53;;;40.30;28.51
70930;BME280;58588;48.102;19.682;2022-08-19T12:43:34;98872.91;;;40.18;26.03
70930;BME280;58588;48.102;19.682;2022-08-19T12:46:36;98866.91;;;40.33;24.77
70930;BME280;58588;48.102;19.682;2022-08-19T12:49:39;98860.84;;;40.31;27.34
70930;BME280;58588;48.102;19.682;2022-08-19T12:52:42;98862.44;;;40.22;25.66
70930;BME280;58588;48.102;19.682;2022-08-19T12:55:44;98864.13;;;40.51;26.49
70930;BME280;58588;48.102;19.682;2022-08-19T12:58:46;98860.06;;;40.45;26.39
70930;BME280;58588;48.102;19.682;2022-08-19T13:01:48;98857.25;;;40.84;25.09
70930;BME280;58588;48.102;19.682;2022-08-19T13:04:50;98855.22;;;41.21;22.31
70930;BME280;58588;48.102;19.682;2022-08-19T13:07:55;98848.44;;;39.56;23.47
70930;BME280;58588;48.102;19.682;2022-08-19T13:10:57;98849.94;;;40.19;24.55
70930;BME280;58588;48.102;19.682;2022-08-19T13:14:01;98849.53;;;40.24;23.00
70930;BME280;58588;48.102;19.682;2022-08-19T13:17:04;98843.53;;;40.76;26.49
70930;BME280;58588;48.102;19.682;2022-08-19T13:20:09;98843.50;;;40.90;26.42
70930;BME280;58588;48.102;19.682;2022-08-19T13:23:13;98850.41;;;41.10;23.28
70930;BME280;58588;48.102;19.682;2022-08-19T13:26:15;98841.50;;;41.08;24.77
70930;BME280;58588;48.102;19.682;2022-08-19T13:29:18;98832.19;;;40.90;24.28
70930;BME280;58588;48.102;19.682;2022-08-19T13:32:37;98834.22;;;41.14;22.19
70930;BME280;58588;48.102;19.682;2022-08-19T13:35:57;98826.91;;;41.28;22.84
70930;BME280;58588;48.102;19.682;2022-08-19T13:39:03;98826.59;;;40.69;23.93
70930;BME280;58588;48.102;19.682;2022-08-19T13:42:05;98828.19;;;40.62;23.69
70930;BME280;58588;48.102;19.682;2022-08-19T13:45:09;98824.13;;;40.78;25.46
70930;BME280;58588;48.102;19.682;2022-08-19T13:48:11;98819.28;;;40.39;26.53
70930;BME280;58588;48.102;19.682;2022-08-19T13:51:13;98816.88;;;40.48;27.20
70930;BME280;58588;48.102;19.682;2022-08-19T13:54:18;98822.53;;;40.62;26.25
70930;BME280;58588;48.102;19.682;2022-08-19T13:57:20;98827.34;;;41.12;26.72
70930;BME280;58588;48.102;19.682;2022-08-19T14:00:23;98813.19;;;41.23;24.48
70930;BME280;58588;48.102;19.682;2022-08-19T14:03:26;98807.56;;;41.05;25.32
70930;BME280;58588;48.102;19.682;2022-08-19T14:06:29;98797.00;;;41.23;24.95
70930;BME280;58588;48.102;19.682;2022-08-19T14:09:32;98801.38;;;41.53;25.28
70930;BME280;58588;48.102;19.682;2022-08-19T14:12:35;98805.13;;;41.21;25.39
70930;BME280;58588;48.102;19.682;2022-08-19T14:15:37;98806.78;;;41.04;25.67
70930;BME280;58588;48.102;19.682;2022-08-19T14:18:39;98808.34;;;41.19;24.70
70930;BME280;58588;48.102;19.682;2022-08-19T14:21:42;98813.16;;;41.26;23.86
70930;BME280;58588;48.102;19.682;2022-08-19T14:24:45;98810.78;;;41.14;24.53
70930;BME280;58588;48.102;19.682;2022-08-19T14:27:48;98811.91;;;41.52;22.59
70930;BME280;58588;48.102;19.682;2022-08-19T14:30:50;98804.69;;;42.14;22.35
70930;BME280;58588;48.102;19.682;2022-08-19T14:33:53;98802.41;;;41.91;21.31
70930;BME280;58588;48.102;19.682;2022-08-19T14:36:55;98805.13;;;42.12;21.32
70930;BME280;58588;48.102;19.682;2022-08-19T14:39:58;98796.47;;;42.34;20.98
70930;BME280;58588;48.102;19.682;2022-08-19T14:43:02;98791.31;;;42.21;24.85
70930;BME280;58588;48.102;19.682;2022-08-19T14:46:05;98783.22;;;42.20;22.52
70930;BME280;58588;48.102;19.682;2022-08-19T14:49:08;98771.84;;;41.54;23.39
70930;BME280;58588;48.102;19.682;2022-08-19T14:52:10;98769.81;;;41.58;23.62
70930;BME280;58588;48.102;19.682;2022-08-19T14:55:14;98768.16;;;41.64;23.58
70930;BME280;58588;48.102;19.682;2022-08-19T14:58:18;98764.59;;;41.49;23.64
70930;BME280;58588;48.102;19.682;2022-08-19T15:01:21;98762.88;;;41.66;23.07
70930;BME280;58588;48.102;19.682;2022-08-19T15:04:24;98759.38;;;41.37;24.14
70930;BME280;58588;48.102;19.682;2022-08-19T15:07:26;98759.38;;;41.40;24.50
70930;BME280;58588;48.102;19.682;2022-08-19T15:10:30;98752.78;;;41.61;24.17
70930;BME280;58588;48.102;19.682;2022-08-19T15:13:32;98752.75;;;41.76;24.03
70930;BME280;58588;48.102;19.682;2022-08-19T15:16:34;98744.25;;;41.68;24.29
70930;BME280;58588;48.102;19.682;2022-08-19T15:19:36;98746.50;;;41.14;25.38
70930;BME280;58588;48.102;19.682;2022-08-19T15:22:37;98741.78;;;40.61;25.26
70930;BME280;58588;48.102;19.682;2022-08-19T15:25:42;98732.47;;;40.79;26.33
70930;BME280;58588;48.102;19.682;2022-08-19T15:28:44;98737.75;;;40.62;26.01
70930;BME280;58588;48.102;19.682;2022-08-19T15:31:46;98740.94;;;40.75;25.33
70930;BME280;58588;48.102;19.682;2022-08-19T15:34:48;98737.75;;;40.37;23.97
70930;BME280;58588;48.102;19.682;2022-08-19T15:37:51;98745.13;;;39.23;25.20
70930;BME280;58588;48.102;19.682;2022-08-19T15:40:54;98748.59;;;38.98;26.04
70930;BME280;58588;48.102;19.682;2022-08-19T15:44:18;98767.16;;;38.48;27.58
70930;BME280;58588;48.102;19.682;2022-08-19T15:47:22;98792.72;;;35.83;32.05
70930;BME280;58588;48.102;19.682;2022-08-19T15:50:25;98790.00;;;34.77;33.82
70930;BME280;58588;48.102;19.682;2022-08-19T15:53:27;98804.34;;;34.13;35.36
70930;BME280;58588;48.102;19.682;2022-08-19T15:56:30;98810.78;;;33.85;35.80
70930;BME280;58588;48.102;19.682;2022-08-19T16:00:01;98833.22;;;33.33;37.15